sensor_id;sensor_type;location;lat;lon;timestamp;pressure;altitude;pressure_sealevel;temperature;humidity
79690;BME280;69156;55.932;-3.238;2023-12-29T00:01:52;97965.63;;;7.89;100.00
79690;BME280;69156;55.932;-3.238;2023-12-29T00:04:17;97961.33;;;7.89;100.00
79690;BME280;69156;55.932;-3.238;2023-12-29T00:06:42;97956.70;;;7.89;100.00
79690;BME280;69156;55.932;-3.238;2023-12-29T00:09:08;97954.99;;;7.92;100.00
79690;BME280;69156;55.932;-3.238;2023-12-29T00:11:35;97920.89;;;7.85;100.00
79690;BME280;69156;55.932;-3.238;2023-12-29T00:14:01;97921.47;;;7.98;100.00
79690;BME280;69156;55.932;-3.238;2023-12-29T00:16:27;97918.82;;;7.96;100.00
79690;BME280;69156;55.932;-3.238;2023-12-29T00:18:52;97904.13;;;7.95;100.00
79690;BME280;69156;55.932;-3.238;2023-12-29T00:21:18;97912.11;;;7.92;100.00
79690;BME280;69156;55.932;-3.238;2023-12-29T00:23:44;97916.02;;;8.09;100.00
79690;BME280;69156;55.932;-3.238;2023-12-29T00:26:09;97910.50;;;7.91;100.00
79690;BME280;69156;55.932;-3.238;2023-12-29T00:28:35;97905.23;;;7.97;100.00
79690;BME280;69156;55.932;-3.238;2023-12-29T00:31:01;97906.76;;;8.06;100.00
79690;BME280;69156;55.932;-3.238;2023-12-29T00:33:27;97899.24;;;7.98;100.00
79690;BME280;69156;55.932;-3.238;2023-12-29T00:35:53;97897.29;;;7.94;100.00
79690;BME280;69156;55.932;-3.238;2023-12-29T00:38:19;97880.64;;;8.02;100.00
79690;BME280;69156;55.932;-3.238;2023-12-29T00:40:45;97892.94;;;8.05;100.00
79690;BME280;69156;55.932;-3.238;2023-12-29T00:43:11;97889.10;;;7.96;100.00
79690;BME280;69156;55.932;-3.238;2023-12-29T00:45:37;97889.28;;;7.87;100.00
79690;BME280;69156;55.932;-3.238;2023-12-29T00:48:03;97883.01;;;7.97;100.00
79690;BME280;69156;55.932;-3.238;2023-12-29T00:50:29;97887.65;;;8.11;100.00
79690;BME280;69156;55.932;-3.238;2023-12-29T00:52:54;97879.09;;;7.95;100.00
79690;BME280;69156;55.932;-3.238;2023-12-29T00:55:20;97884.78;;;7.99;100.00
79690;BME280;69156;55.932;-3.238;2023-12-29T00:57:46;97868.98;;;8.01;100.00
79690;BME280;69156;55.932;-3.238;2023-12-29T01:00:13;97873.12;;;8.08;100.00
79690;BME280;69156;55.932;-3.238;2023-12-29T01:02:38;97870.66;;;8.03;100.00
79690;BME280;69156;55.932;-3.238;2023-12-29T01:05:04;97876.66;;;8.02;100.00
79690;BME280;69156;55.932;-3.238;2023-12-29T01:07:28;97862.99;;;7.96;100.00
79690;BME280;69156;55.932;-3.238;2023-12-29T01:09:54;97868.18;;;7.96;100.00
79690;BME280;69156;55.932;-3.238;2023-12-29T01:12:21;97870.33;;;7.94;100.00
79690;BME280;69156;55.932;-3.238;2023-12-29T01:14:47;97855.24;;;7.99;100.00
79690;BME280;69156;55.932;-3.238;2023-12-29T01:17:13;97867.37;;;7.92;100.00
79690;BME280;69156;55.932;-3.238;2023-12-29T01:19:38;97850.06;;;8.11;100.00
79690;BME280;69156;55.932;-3.238;2023-12-29T01:22:04;97844.22;;;8.10;100.00
79690;BME280;69156;55.932;-3.238;2023-12-29T01:24:30;97812.84;;;8.20;100.00
79690;BME280;69156;55.932;-3.238;2023-12-29T01:26:55;97815.07;;;8.10;100.00
79690;BME280;69156;55.932;-3.238;2023-12-29T01:29:20;97824.43;;;8.11;100.00
79690;BME280;69156;55.932;-3.238;2023-12-29T01:31:46;97823.23;;;8.01;100.00
79690;BME280;69156;55.932;-3.238;2023-12-29T01:34:12;97823.07;;;8.13;100.00
79690;BME280;69156;55.932;-3.238;2023-12-29T01:36:37;97825.21;;;8.11;100.00
79690;BME280;69156;55.932;-3.238;2023-12-29T01:39:03;97820.89;;;7.97;100.00
79690;BME280;69156;55.932;-3.238;2023-12-29T01:41:29;97796.27;;;8.03;100.00
79690;BME280;69156;55.932;-3.238;2023-12-29T01:44:31;97803.54;;;7.87;100.00
79690;BME280;69156;55.932;-3.238;2023-12-29T01:46:20;97807.82;;;8.07;100.00
79690;BME280;69156;55.932;-3.238;2023-12-29T01:48:45;97815.13;;;7.95;100.00
79690;BME280;69156;55.932;-3.238;2023-12-29T01:51:12;97826.94;;;8.02;100.00
79690;BME280;69156;55.932;-3.238;2023-12-29T01:53:38;97841.36;;;8.02;100.00
79690;BME280;69156;55.932;-3.238;2023-12-29T01:56:04;97814.05;;;7.89;100.00
79690;BME280;69156;55.932;-3.238;2023-12-29T01:58:30;97827.32;;;7.78;100.00
79690;BME280;69156;55.932;-3.238;2023-12-29T02:00:55;97799.14;;;7.88;100.00
79690;BME280;69156;55.932;-3.238;2023-12-29T02:03:21;97802.17;;;7.71;100.00
79690;BME280;69156;55.932;-3.238;2023-12-29T02:05:47;97818.67;;;7.64;100.00
79690;BME280;69156;55.932;-3.238;2023-12-29T02:08:12;97801.15;;;7.55;100.00
79690;BME280;69156;55.932;-3.238;2023-12-29T02:10:38;97810.74;;;7.58;100.00
79690;BME280;69156;55.932;-3.238;2023-12-29T02:13:04;97781.76;;;7.55;100.00
79690;BME280;69156;55.932;-3.238;2023-12-29T02:15:30;97809.37;;;7.69;100.00
79690;BME280;69156;55.932;-3.238;2023-12-29T02:18:01;97812.60;;;7.69;100.00
79690;BME280;69156;55.932;-3.238;2023-12-29T02:20:22;97812.71;;;7.69;100.00
79690;BME280;69156;55.932;-3.238;2023-12-29T02:22:48;97816.31;;;7.76;100.00
79690;BME280;69156;55.932;-3.238;2023-12-29T02:25:14;97812.38;;;7.77;100.00
79690;BME280;69156;55.932;-3.238;2023-12-29T02:27:46;97813.58;;;7.79;100.00
79690;BME280;69156;55.932;-3.238;2023-12-29T02:30:10;97800.52;;;7.84;100.00
79690;BME280;69156;55.932;-3.238;2023-12-29T02:32:31;97795.72;;;7.85;100.00
79690;BME280;69156;55.932;-3.238;2023-12-29T02:34:56;97797.24;;;7.79;100.00
79690;BME280;69156;55.932;-3.238;2023-12-29T02:37:22;97784.14;;;7.67;100.00
79690;BME280;69156;55.932;-3.238;2023-12-29T02:39:46;97783.82;;;7.67;100.00
79690;BME280;69156;55.932;-3.238;2023-12-29T02:42:12;97793.61;;;7.81;100.00
79690;BME280;69156;55.932;-3.238;2023-12-29T02:44:38;97793.53;;;7.80;100.00
79690;BME280;69156;55.932;-3.238;2023-12-29T02:47:04;97792.58;;;7.90;100.00
79690;BME280;69156;55.932;-3.238;2023-12-29T02:49:29;97788.86;;;7.79;100.00
79690;BME280;69156;55.932;-3.238;2023-12-29T02:51:54;97797.69;;;7.88;100.00
79690;BME280;69156;55.932;-3.238;2023-12-29T02:54:20;97790.72;;;7.85;100.00
79690;BME280;69156;55.932;-3.238;2023-12-29T02:56:45;97776.31;;;7.88;100.00
79690;BME280;69156;55.932;-3.238;2023-12-29T02:59:11;97778.89;;;7.91;100.00
79690;BME280;69156;55.932;-3.238;2023-12-29T03:01:39;97776.43;;;7.87;100.00
79690;BME280;69156;55.932;-3.238;2023-12-29T03:04:04;97767.83;;;7.94;100.00
79690;BME280;69156;55.932;-3.238;2023-12-29T03:06:29;97774.29;;;8.12;100.00
79690;BME280;69156;55.932;-3.238;2023-12-29T03:08:55;97778.75;;;8.02;100.00
79690;BME280;69156;55.932;-3.238;2023-12-29T03:11:20;97766.62;;;7.94;100.00
79690;BME280;69156;55.932;-3.238;2023-12-29T03:13:47;97773.29;;;8.05;100.00
79690;BME280;69156;55.932;-3.238;2023-12-29T03:16:13;97781.73;;;8.08;100.00
79690;BME280;69156;55.932;-3.238;2023-12-29T03:18:39;97786.87;;;8.02;100.00
79690;BME280;69156;55.932;-3.238;2023-12-29T03:21:06;97795.75;;;8.00;100.00
79690;BME280;69156;55.932;-3.238;2023-12-29T03:23:31;97792.47;;;8.00;100.00
79690;BME280;69156;55.932;-3.238;2023-12-29T03:25:56;97795.43;;;8.00;100.00
79690;BME280;69156;55.932;-3.238;2023-12-29T03:28:22;97825.90;;;8.03;100.00
79690;BME280;69156;55.932;-3.238;2023-12-29T03:30:47;97837.73;;;8.08;100.00
79690;BME280;69156;55.932;-3.238;2023-12-29T03:33:12;97843.58;;;8.03;100.00
79690;BME280;69156;55.932;-3.238;2023-12-29T03:35:37;97852.87;;;8.16;100.00
79690;BME280;69156;55.932;-3.238;2023-12-29T03:38:04;97866.50;;;8.10;100.00
79690;BME280;69156;55.932;-3.238;2023-12-29T03:40:30;97866.53;;;8.08;100.00
79690;BME280;69156;55.932;-3.238;2023-12-29T03:42:56;97886.44;;;8.22;100.00
79690;BME280;69156;55.932;-3.238;2023-12-29T03:45:22;97879.38;;;8.15;100.00
79690;BME280;69156;55.932;-3.238;2023-12-29T03:47:48;97881.51;;;8.20;100.00
79690;BME280;69156;55.932;-3.238;2023-12-29T03:50:14;97908.92;;;8.27;100.00
79690;BME280;69156;55.932;-3.238;2023-12-29T03:52:39;97923.26;;;8.29;100.00
79690;BME280;69156;55.932;-3.238;2023-12-29T03:55:06;97935.22;;;8.29;100.00
79690;BME280;69156;55.932;-3.238;2023-12-29T03:57:30;97943.81;;;8.21;100.00
79690;BME280;69156;55.932;-3.238;2023-12-29T03:59:55;97946.84;;;8.40;100.00
79690;BME280;69156;55.932;-3.238;2023-12-29T04:02:21;97959.85;;;8.30;100.00
79690;BME280;69156;55.932;-3.238;2023-12-29T04:04:48;97976.60;;;8.23;100.00
79690;BME280;69156;55.932;-3.238;2023-12-29T04:07:12;97985.36;;;8.17;100.00
79690;BME280;69156;55.932;-3.238;2023-12-29T04:09:38;98001.43;;;8.14;100.00
79690;BME280;69156;55.932;-3.238;2023-12-29T04:12:04;98008.65;;;8.19;100.00
79690;BME280;69156;55.932;-3.238;2023-12-29T04:14:29;98021.70;;;8.18;100.00
79690;BME280;69156;55.932;-3.238;2023-12-29T04:16:54;98028.76;;;8.21;100.00
79690;BME280;69156;55.932;-3.238;2023-12-29T04:19:21;98036.01;;;8.25;100.00
79690;BME280;69156;55.932;-3.238;2023-12-29T04:21:46;98049.22;;;8.15;100.00
79690;BME280;69156;55.932;-3.238;2023-12-29T04:24:12;98052.85;;;8.04;100.00
79690;BME280;69156;55.932;-3.238;2023-12-29T04:26:37;98052.78;;;8.04;100.00
79690;BME280;69156;55.932;-3.238;2023-12-29T04:29:04;98076.96;;;8.14;100.00
79690;BME280;69156;55.932;-3.238;2023-12-29T04:31:29;98087.52;;;8.19;100.00
79690;BME280;69156;55.932;-3.238;2023-12-29T04:33:54;98100.98;;;8.01;100.00
79690;BME280;69156;55.932;-3.238;2023-12-29T04:36:20;98103.06;;;8.00;100.00
79690;BME280;69156;55.932;-3.238;2023-12-29T04:38:45;98122.72;;;7.87;100.00
79690;BME280;69156;55.932;-3.238;2023-12-29T04:41:12;98128.40;;;7.93;100.00
79690;BME280;69156;55.932;-3.238;2023-12-29T04:43:36;98138.11;;;7.94;100.00
79690;BME280;69156;55.932;-3.238;2023-12-29T04:46:03;98149.56;;;7.86;100.00
79690;BME280;69156;55.932;-3.238;2023-12-29T04:48:29;98166.08;;;7.92;100.00
79690;BME280;69156;55.932;-3.238;2023-12-29T04:50:54;98160.87;;;7.70;100.00
79690;BME280;69156;55.932;-3.238;2023-12-29T04:53:20;98172.96;;;7.79;100.00
79690;BME280;69156;55.932;-3.238;2023-12-29T04:56:25;98187.36;;;7.87;100.00
79690;BME280;69156;55.932;-3.238;2023-12-29T04:58:51;98212.50;;;7.79;100.00
79690;BME280;69156;55.932;-3.238;2023-12-29T05:01:16;98212.20;;;7.96;100.00
79690;BME280;69156;55.932;-3.238;2023-12-29T05:03:42;98220.23;;;8.00;100.00
79690;BME280;69156;55.932;-3.238;2023-12-29T05:06:07;98226.65;;;8.13;100.00
79690;BME280;69156;55.932;-3.238;2023-12-29T05:08:33;98233.87;;;8.22;100.00
79690;BME280;69156;55.932;-3.238;2023-12-29T05:10:58;98242.07;;;8.20;100.00
79690;BME280;69156;55.932;-3.238;2023-12-29T05:13:23;98244.07;;;7.92;100.00
79690;BME280;69156;55.932;-3.238;2023-12-29T05:15:48;98248.09;;;7.92;100.00
79690;BME280;69156;55.932;-3.238;2023-12-29T05:18:14;98252.60;;;7.83;100.00
79690;BME280;69156;55.932;-3.238;2023-12-29T05:20:39;98255.91;;;7.83;100.00
79690;BME280;69156;55.932;-3.238;2023-12-29T05:23:04;98268.40;;;7.61;100.00
79690;BME280;69156;55.932;-3.238;2023-12-29T05:25:30;98280.08;;;7.69;100.00
79690;BME280;69156;55.932;-3.238;2023-12-29T05:27:56;98284.36;;;7.59;100.00
79690;BME280;69156;55.932;-3.238;2023-12-29T05:30:21;98298.97;;;7.60;100.00
79690;BME280;69156;55.932;-3.238;2023-12-29T05:32:47;98304.70;;;7.62;100.00
79690;BME280;69156;55.932;-3.238;2023-12-29T05:35:12;98314.79;;;7.65;100.00
79690;BME280;69156;55.932;-3.238;2023-12-29T05:37:37;98322.51;;;7.73;100.00
79690;BME280;69156;55.932;-3.238;2023-12-29T05:40:03;98324.29;;;7.78;100.00
79690;BME280;69156;55.932;-3.238;2023-12-29T05:42:28;98333.82;;;7.83;100.00
79690;BME280;69156;55.932;-3.238;2023-12-29T05:44:53;98345.48;;;7.64;100.00
79690;BME280;69156;55.932;-3.238;2023-12-29T05:47:19;98352.91;;;7.67;100.00
79690;BME280;69156;55.932;-3.238;2023-12-29T05:49:45;98358.41;;;7.62;100.00
79690;BME280;69156;55.932;-3.238;2023-12-29T05:52:11;98365.31;;;7.79;100.00
79690;BME280;69156;55.932;-3.238;2023-12-29T05:54:37;98367.73;;;7.70;100.00
79690;BME280;69156;55.932;-3.238;2023-12-29T05:57:03;98377.49;;;7.57;100.00
79690;BME280;69156;55.932;-3.238;2023-12-29T05:59:28;98383.08;;;7.76;100.00
79690;BME280;69156;55.932;-3.238;2023-12-29T06:01:53;98387.75;;;7.79;100.00
79690;BME280;69156;55.932;-3.238;2023-12-29T06:04:19;98391.37;;;7.80;100.00
79690;BME280;69156;55.932;-3.238;2023-12-29T06:06:45;98398.49;;;7.88;100.00
79690;BME280;69156;55.932;-3.238;2023-12-29T06:09:10;98405.54;;;7.65;100.00
79690;BME280;69156;55.932;-3.238;2023-12-29T06:11:36;98419.49;;;7.55;100.00
79690;BME280;69156;55.932;-3.238;2023-12-29T06:14:02;98430.22;;;7.69;100.00
79690;BME280;69156;55.932;-3.238;2023-12-29T06:16:28;98436.99;;;7.68;100.00
79690;BME280;69156;55.932;-3.238;2023-12-29T06:18:53;98438.45;;;7.66;100.00
79690;BME280;69156;55.932;-3.238;2023-12-29T06:21:19;98448.15;;;7.73;100.00
79690;BME280;69156;55.932;-3.238;2023-12-29T06:23:45;98454.13;;;7.75;100.00
79690;BME280;69156;55.932;-3.238;2023-12-29T06:26:15;98452.17;;;7.76;100.00
79690;BME280;69156;55.932;-3.238;2023-12-29T06:28:37;98465.65;;;7.81;100.00
79690;BME280;69156;55.932;-3.238;2023-12-29T06:31:03;98469.56;;;7.86;100.00
79690;BME280;69156;55.932;-3.238;2023-12-29T06:33:28;98477.29;;;7.81;100.00
79690;BME280;69156;55.932;-3.238;2023-12-29T06:35:54;98482.79;;;7.99;100.00
79690;BME280;69156;55.932;-3.238;2023-12-29T06:38:19;98486.26;;;7.92;100.00
79690;BME280;69156;55.932;-3.238;2023-12-29T06:40:46;98491.73;;;7.98;100.00
79690;BME280;69156;55.932;-3.238;2023-12-29T06:43:12;98499.37;;;7.78;100.00
79690;BME280;69156;55.932;-3.238;2023-12-29T06:45:38;98501.63;;;7.84;100.00
79690;BME280;69156;55.932;-3.238;2023-12-29T06:48:04;98503.49;;;7.77;100.00
79690;BME280;69156;55.932;-3.238;2023-12-29T06:50:29;98505.71;;;7.81;100.00
79690;BME280;69156;55.932;-3.238;2023-12-29T06:52:54;98508.05;;;7.73;100.00
79690;BME280;69156;55.932;-3.238;2023-12-29T06:55:20;98509.80;;;7.84;100.00
79690;BME280;69156;55.932;-3.238;2023-12-29T06:57:45;98515.09;;;7.70;100.00
79690;BME280;69156;55.932;-3.238;2023-12-29T07:00:11;98521.33;;;7.64;100.00
79690;BME280;69156;55.932;-3.238;2023-12-29T07:02:38;98526.64;;;7.57;100.00
79690;BME280;69156;55.932;-3.238;2023-12-29T07:05:02;98535.32;;;7.55;100.00
79690;BME280;69156;55.932;-3.238;2023-12-29T07:07:27;98539.91;;;7.51;100.00
79690;BME280;69156;55.932;-3.238;2023-12-29T07:09:53;98543.04;;;7.62;100.00
79690;BME280;69156;55.932;-3.238;2023-12-29T07:12:18;98546.53;;;7.65;100.00
79690;BME280;69156;55.932;-3.238;2023-12-29T07:14:45;98556.99;;;7.62;100.00
79690;BME280;69156;55.932;-3.238;2023-12-29T07:17:11;98563.31;;;7.62;100.00
79690;BME280;69156;55.932;-3.238;2023-12-29T07:19:37;98570.27;;;7.58;100.00
79690;BME280;69156;55.932;-3.238;2023-12-29T07:22:04;98570.07;;;7.54;100.00
79690;BME280;69156;55.932;-3.238;2023-12-29T07:24:28;98573.64;;;7.47;100.00
79690;BME280;69156;55.932;-3.238;2023-12-29T07:26:54;98574.90;;;7.45;100.00
79690;BME280;69156;55.932;-3.238;2023-12-29T07:29:20;98576.21;;;7.38;100.00
79690;BME280;69156;55.932;-3.238;2023-12-29T07:31:46;98577.22;;;7.44;100.00
79690;BME280;69156;55.932;-3.238;2023-12-29T07:34:11;98576.80;;;7.41;100.00
79690;BME280;69156;55.932;-3.238;2023-12-29T07:36:38;98578.55;;;7.37;100.00
79690;BME280;69156;55.932;-3.238;2023-12-29T07:39:02;98583.98;;;7.39;100.00
79690;BME280;69156;55.932;-3.238;2023-12-29T07:41:27;98582.19;;;7.41;100.00
79690;BME280;69156;55.932;-3.238;2023-12-29T07:43:53;98581.52;;;7.36;100.00
79690;BME280;69156;55.932;-3.238;2023-12-29T07:46:24;98581.12;;;7.39;100.00
79690;BME280;69156;55.932;-3.238;2023-12-29T07:48:43;98582.79;;;7.42;100.00
79690;BME280;69156;55.932;-3.238;2023-12-29T07:51:09;98582.81;;;7.51;100.00
79690;BME280;69156;55.932;-3.238;2023-12-29T07:53:35;98588.18;;;7.59;100.00
79690;BME280;69156;55.932;-3.238;2023-12-29T07:56:01;98590.59;;;7.47;100.00
79690;BME280;69156;55.932;-3.238;2023-12-29T07:58:25;98598.05;;;7.46;100.00
79690;BME280;69156;55.932;-3.238;2023-12-29T08:00:51;98604.51;;;7.53;100.00
79690;BME280;69156;55.932;-3.238;2023-12-29T08:03:17;98608.02;;;7.55;100.00
79690;BME280;69156;55.932;-3.238;2023-12-29T08:05:44;98613.10;;;7.48;100.00
79690;BME280;69156;55.932;-3.238;2023-12-29T08:08:10;98619.11;;;7.46;100.00
79690;BME280;69156;55.932;-3.238;2023-12-29T08:10:35;98627.60;;;7.47;100.00
79690;BME280;69156;55.932;-3.238;2023-12-29T08:13:09;98633.53;;;7.37;100.00
79690;BME280;69156;55.932;-3.238;2023-12-29T08:15:35;98637.34;;;7.31;100.00
79690;BME280;69156;55.932;-3.238;2023-12-29T08:18:01;98645.59;;;7.39;100.00
79690;BME280;69156;55.932;-3.238;2023-12-29T08:20:26;98654.35;;;7.34;100.00
79690;BME280;69156;55.932;-3.238;2023-12-29T08:22:51;98658.24;;;7.34;100.00
79690;BME280;69156;55.932;-3.238;2023-12-29T08:25:17;98660.23;;;7.35;100.00
79690;BME280;69156;55.932;-3.238;2023-12-29T08:27:41;98663.01;;;7.36;100.00
79690;BME280;69156;55.932;-3.238;2023-12-29T08:30:08;98669.38;;;7.27;100.00
79690;BME280;69156;55.932;-3.238;2023-12-29T08:32:33;98672.53;;;7.32;100.00
79690;BME280;69156;55.932;-3.238;2023-12-29T08:34:58;98673.82;;;7.35;100.00
79690;BME280;69156;55.932;-3.238;2023-12-29T08:37:24;98679.31;;;7.43;100.00
79690;BME280;69156;55.932;-3.238;2023-12-29T08:39:51;98683.55;;;7.50;100.00
79690;BME280;69156;55.932;-3.238;2023-12-29T08:42:16;98687.72;;;7.35;100.00
79690;BME280;69156;55.932;-3.238;2023-12-29T08:44:42;98693.30;;;7.38;100.00
79690;BME280;69156;55.932;-3.238;2023-12-29T08:47:08;98697.44;;;7.36;100.00
79690;BME280;69156;55.932;-3.238;2023-12-29T08:49:33;98700.87;;;7.41;100.00
79690;BME280;69156;55.932;-3.238;2023-12-29T08:51:59;98701.72;;;7.33;100.00
79690;BME280;69156;55.932;-3.238;2023-12-29T08:54:25;98705.44;;;7.28;100.00
79690;BME280;69156;55.932;-3.238;2023-12-29T08:56:51;98710.39;;;7.31;100.00
79690;BME280;69156;55.932;-3.238;2023-12-29T08:59:16;98713.45;;;7.28;100.00
79690;BME280;69156;55.932;-3.238;2023-12-29T09:01:42;98722.52;;;7.48;100.00
79690;BME280;69156;55.932;-3.238;2023-12-29T09:04:08;98732.24;;;7.38;100.00
79690;BME280;69156;55.932;-3.238;2023-12-29T09:06:34;98737.47;;;7.28;100.00
79690;BME280;69156;55.932;-3.238;2023-12-29T09:09:00;98742.18;;;7.28;100.00
79690;BME280;69156;55.932;-3.238;2023-12-29T09:11:26;98748.56;;;7.39;100.00
79690;BME280;69156;55.932;-3.238;2023-12-29T09:13:52;98749.57;;;7.27;100.00
79690;BME280;69156;55.932;-3.238;2023-12-29T09:16:17;98750.78;;;7.31;100.00
79690;BME280;69156;55.932;-3.238;2023-12-29T09:18:43;98752.35;;;7.28;100.00
79690;BME280;69156;55.932;-3.238;2023-12-29T09:21:08;98755.47;;;7.35;100.00
79690;BME280;69156;55.932;-3.238;2023-12-29T09:23:35;98755.67;;;7.39;100.00
79690;BME280;69156;55.932;-3.238;2023-12-29T09:26:01;98760.01;;;7.32;100.00
79690;BME280;69156;55.932;-3.238;2023-12-29T09:28:27;98762.89;;;7.36;100.00
79690;BME280;69156;55.932;-3.238;2023-12-29T09:30:52;98768.87;;;7.28;100.00
79690;BME280;69156;55.932;-3.238;2023-12-29T09:33:18;98776.59;;;7.28;100.00
79690;BME280;69156;55.932;-3.238;2023-12-29T09:35:44;98784.93;;;7.26;100.00
79690;BME280;69156;55.932;-3.238;2023-12-29T09:38:10;98793.33;;;7.31;100.00
79690;BME280;69156;55.932;-3.238;2023-12-29T09:40:37;98801.18;;;7.29;100.00
79690;BME280;69156;55.932;-3.238;2023-12-29T09:43:03;98807.32;;;7.24;100.00
79690;BME280;69156;55.932;-3.238;2023-12-29T09:45:28;98812.05;;;7.32;100.00
79690;BME280;69156;55.932;-3.238;2023-12-29T09:47:55;98819.82;;;7.29;100.00
79690;BME280;69156;55.932;-3.238;2023-12-29T09:50:19;98826.43;;;7.27;100.00
79690;BME280;69156;55.932;-3.238;2023-12-29T09:52:44;98826.06;;;7.28;100.00
79690;BME280;69156;55.932;-3.238;2023-12-29T09:55:10;98834.44;;;7.26;100.00
79690;BME280;69156;55.932;-3.238;2023-12-29T09:57:35;98832.37;;;7.36;100.00
79690;BME280;69156;55.932;-3.238;2023-12-29T10:00:02;98839.42;;;7.34;100.00
79690;BME280;69156;55.932;-3.238;2023-12-29T10:02:27;98843.99;;;7.31;100.00
79690;BME280;69156;55.932;-3.238;2023-12-29T10:04:52;98849.65;;;7.24;100.00
79690;BME280;69156;55.932;-3.238;2023-12-29T10:07:23;98850.34;;;7.17;100.00
79690;BME280;69156;55.932;-3.238;2023-12-29T10:09:43;98859.34;;;7.11;100.00
79690;BME280;69156;55.932;-3.238;2023-12-29T10:12:09;98862.97;;;7.15;100.00
79690;BME280;69156;55.932;-3.238;2023-12-29T10:14:42;98869.91;;;7.12;100.00
79690;BME280;69156;55.932;-3.238;2023-12-29T10:17:06;98877.22;;;7.17;100.00
79690;BME280;69156;55.932;-3.238;2023-12-29T10:19:33;98881.49;;;7.17;100.00
79690;BME280;69156;55.932;-3.238;2023-12-29T10:21:54;98883.17;;;7.44;100.00
79690;BME280;69156;55.932;-3.238;2023-12-29T10:24:18;98883.60;;;7.23;100.00
79690;BME280;69156;55.932;-3.238;2023-12-29T10:26:41;98888.38;;;7.27;100.00
79690;BME280;69156;55.932;-3.238;2023-12-29T10:29:07;98890.46;;;7.21;100.00
79690;BME280;69156;55.932;-3.238;2023-12-29T10:31:31;98898.06;;;7.08;100.00
79690;BME280;69156;55.932;-3.238;2023-12-29T10:34:17;98907.49;;;6.96;100.00
79690;BME280;69156;55.932;-3.238;2023-12-29T10:36:23;98915.67;;;7.20;100.00
79690;BME280;69156;55.932;-3.238;2023-12-29T10:38:49;98920.07;;;7.18;100.00
79690;BME280;69156;55.932;-3.238;2023-12-29T10:41:15;98926.63;;;7.22;100.00
79690;BME280;69156;55.932;-3.238;2023-12-29T10:43:40;98927.13;;;7.25;100.00
79690;BME280;69156;55.932;-3.238;2023-12-29T10:46:06;98926.84;;;7.30;100.00
79690;BME280;69156;55.932;-3.238;2023-12-29T10:48:30;98931.87;;;7.21;100.00
79690;BME280;69156;55.932;-3.238;2023-12-29T10:50:55;98939.75;;;7.20;100.00
79690;BME280;69156;55.932;-3.238;2023-12-29T10:53:21;98937.69;;;7.20;100.00
79690;BME280;69156;55.932;-3.238;2023-12-29T10:55:47;98942.76;;;7.26;100.00
79690;BME280;69156;55.932;-3.238;2023-12-29T10:58:14;98943.54;;;7.25;100.00
79690;BME280;69156;55.932;-3.238;2023-12-29T11:00:37;98945.86;;;7.35;100.00
79690;BME280;69156;55.932;-3.238;2023-12-29T11:03:04;98951.12;;;7.20;100.00
79690;BME280;69156;55.932;-3.238;2023-12-29T11:05:28;98955.59;;;7.14;100.00
79690;BME280;69156;55.932;-3.238;2023-12-29T11:07:54;98960.00;;;7.02;100.00
79690;BME280;69156;55.932;-3.238;2023-12-29T11:10:20;98962.24;;;7.23;100.00
79690;BME280;69156;55.932;-3.238;2023-12-29T11:12:45;98963.52;;;7.24;100.00
79690;BME280;69156;55.932;-3.238;2023-12-29T11:15:11;98968.34;;;7.17;100.00
79690;BME280;69156;55.932;-3.238;2023-12-29T11:17:35;98967.45;;;7.15;100.00
79690;BME280;69156;55.932;-3.238;2023-12-29T11:20:01;98968.57;;;7.15;100.00
79690;BME280;69156;55.932;-3.238;2023-12-29T11:22:28;98968.72;;;7.05;100.00
79690;BME280;69156;55.932;-3.238;2023-12-29T11:24:51;98966.11;;;7.04;100.00
79690;BME280;69156;55.932;-3.238;2023-12-29T11:27:17;98972.57;;;6.95;100.00
79690;BME280;69156;55.932;-3.238;2023-12-29T11:29:42;98979.67;;;7.05;100.00
79690;BME280;69156;55.932;-3.238;2023-12-29T11:32:12;98985.79;;;6.87;100.00
79690;BME280;69156;55.932;-3.238;2023-12-29T11:34:37;98993.12;;;6.88;100.00
79690;BME280;69156;55.932;-3.238;2023-12-29T11:37:04;98997.36;;;6.92;100.00
79690;BME280;69156;55.932;-3.238;2023-12-29T11:39:30;98997.41;;;7.07;100.00
79690;BME280;69156;55.932;-3.238;2023-12-29T11:41:54;98995.04;;;6.95;100.00
79690;BME280;69156;55.932;-3.238;2023-12-29T11:44:24;98997.34;;;7.03;100.00
79690;BME280;69156;55.932;-3.238;2023-12-29T11:46:42;99000.10;;;7.05;100.00
79690;BME280;69156;55.932;-3.238;2023-12-29T11:49:06;99005.18;;;6.99;100.00
79690;BME280;69156;55.932;-3.238;2023-12-29T11:51:34;99005.21;;;7.08;100.00
79690;BME280;69156;55.932;-3.238;2023-12-29T11:53:58;99006.57;;;7.01;100.00
79690;BME280;69156;55.932;-3.238;2023-12-29T11:56:23;99008.13;;;6.97;100.00
79690;BME280;69156;55.932;-3.238;2023-12-29T11:58:48;99008.33;;;7.06;100.00
79690;BME280;69156;55.932;-3.238;2023-12-29T12:01:13;99010.84;;;7.07;100.00
79690;BME280;69156;55.932;-3.238;2023-12-29T12:03:39;99013.93;;;7.11;100.00
79690;BME280;69156;55.932;-3.238;2023-12-29T12:06:04;99017.36;;;7.03;100.00
79690;BME280;69156;55.932;-3.238;2023-12-29T12:08:31;99018.50;;;7.14;100.00
79690;BME280;69156;55.932;-3.238;2023-12-29T12:10:55;99018.51;;;7.11;100.00
79690;BME280;69156;55.932;-3.238;2023-12-29T12:13:43;99021.70;;;7.12;100.00
79690;BME280;69156;55.932;-3.238;2023-12-29T12:15:46;99024.76;;;7.24;100.00
79690;BME280;69156;55.932;-3.238;2023-12-29T12:18:11;99029.93;;;7.05;100.00
79690;BME280;69156;55.932;-3.238;2023-12-29T12:20:40;99030.30;;;7.13;100.00
79690;BME280;69156;55.932;-3.238;2023-12-29T12:23:11;99030.26;;;7.14;100.00
79690;BME280;69156;55.932;-3.238;2023-12-29T12:25:32;99029.55;;;7.09;100.00
79690;BME280;69156;55.932;-3.238;2023-12-29T12:27:56;99026.00;;;6.99;100.00
79690;BME280;69156;55.932;-3.238;2023-12-29T12:30:21;99031.01;;;6.98;100.00
79690;BME280;69156;55.932;-3.238;2023-12-29T12:32:49;99030.30;;;7.28;100.00
79690;BME280;69156;55.932;-3.238;2023-12-29T12:35:15;99029.80;;;7.13;100.00
79690;BME280;69156;55.932;-3.238;2023-12-29T12:37:37;99031.22;;;7.03;100.00
79690;BME280;69156;55.932;-3.238;2023-12-29T12:40:04;99031.35;;;7.14;100.00
79690;BME280;69156;55.932;-3.238;2023-12-29T12:42:28;99031.39;;;7.22;100.00